createdAt,value
2023-05-21T00:00:46.321Z,71.69
2023-05-21T00:03:49.970Z,70.68
2023-05-21T00:06:52.257Z,71.39
2023-05-21T00:09:54.971Z,69.67
2023-05-21T00:12:56.809Z,70.94
2023-05-21T00:16:00.161Z,70.10
2023-05-21T00:19:03.650Z,71.52
2023-05-21T00:22:05.813Z,72.65
2023-05-21T00:25:08.818Z,71.65
2023-05-21T00:28:11.646Z,72.49
2023-05-21T00:31:16.105Z,73.05
2023-05-21T00:34:18.229Z,73.64
2023-05-21T00:37:20.903Z,73.27
2023-05-21T00:40:22.796Z,73.24
2023-05-21T00:43:26.665Z,72.06
2023-05-21T00:46:30.391Z,72.01
2023-05-21T00:49:32.658Z,72.77
2023-05-21T00:52:41.664Z,72.45
2023-05-21T00:55:46.476Z,73.40
2023-05-21T00:58:48.731Z,71.59
2023-05-21T01:01:56.262Z,71.51
2023-05-21T01:05:00.421Z,73.48
2023-05-21T01:08:03.240Z,73.62
2023-05-21T01:11:06.529Z,73.41
2023-05-21T01:14:10.262Z,74.02
2023-05-21T01:17:14.152Z,74.35
2023-05-21T01:20:20.172Z,73.61
2023-05-21T01:23:23.609Z,72.30
2023-05-21T01:26:26.157Z,72.75
2023-05-21T01:29:28.639Z,74.10
2023-05-21T01:32:35.127Z,74.52
2023-05-21T01:35:41.953Z,73.34
2023-05-21T01:38:53.480Z,74.31
2023-05-21T01:41:56.468Z,74.30
2023-05-21T01:44:59.674Z,74.98
2023-05-21T01:48:03.641Z,73.42
2023-05-21T01:51:06.490Z,75.09
2023-05-21T01:54:09.811Z,74.54
2023-05-21T01:57:12.077Z,73.86
2023-05-21T02:00:15.174Z,72.73
2023-05-21T02:03:17.652Z,74.14
2023-05-21T02:06:20.398Z,75.35
2023-05-21T02:09:23.735Z,74.85
2023-05-21T02:12:25.982Z,75.13
2023-05-21T02:15:27.889Z,73.86
2023-05-21T02:18:29.702Z,74.33
2023-05-21T02:21:32.492Z,74.09
2023-05-21T02:24:35.721Z,75.22
2023-05-21T02:27:38.641Z,74.96
2023-05-21T02:30:41.347Z,75.23
2023-05-21T02:33:43.279Z,74.31
2023-05-21T02:36:48.506Z,73.19
2023-05-21T02:39:51.768Z,73.93
2023-05-21T02:42:55.543Z,73.20
2023-05-21T02:45:57.451Z,74.62
2023-05-21T02:48:59.406Z,74.73
2023-05-21T02:52:01.529Z,73.70
2023-05-21T02:55:05.553Z,74.03
2023-05-21T02:58:07.457Z,75.35
2023-05-21T03:01:10.369Z,74.26
2023-05-21T03:04:12.229Z,75.19
2023-05-21T03:07:15.187Z,74.53
2023-05-21T03:10:18.520Z,73.56
2023-05-21T03:13:20.464Z,74.09
2023-05-21T03:16:23.334Z,75.18
2023-05-21T03:19:25.414Z,76.68
2023-05-21T03:22:28.277Z,76.48
2023-05-21T03:25:31.664Z,74.35
2023-05-21T03:28:34.991Z,75.01
2023-05-21T03:31:36.921Z,74.78
2023-05-21T03:34:39.184Z,74.35
2023-05-21T03:37:41.130Z,74.10
2023-05-21T03:40:44.627Z,74.70
2023-05-21T03:43:46.461Z,74.09
2023-05-21T03:46:48.268Z,72.83
2023-05-21T03:49:52.663Z,73.29
2023-05-21T03:52:54.448Z,73.04
2023-05-21T03:55:57.651Z,71.50
2023-05-21T03:58:59.452Z,72.51
2023-05-21T04:02:01.378Z,73.05
2023-05-21T04:05:05.172Z,74.14
2023-05-21T04:08:07.371Z,72.69
2023-05-21T04:11:11.455Z,72.23
2023-05-21T04:14:13.312Z,70.99
2023-05-21T04:17:15.223Z,72.36
2023-05-21T04:20:18.549Z,71.75
2023-05-21T04:23:23.600Z,71.87
2023-05-21T04:26:28.150Z,70.70
2023-05-21T04:29:30.259Z,63.83
2023-05-21T04:32:33.476Z,66.07
2023-05-21T04:35:36.227Z,62.89
2023-05-21T04:38:39.921Z,62.58
2023-05-21T04:41:43.167Z,61.55
2023-05-21T04:44:46.056Z,63.42
2023-05-21T04:47:48.070Z,61.36
2023-05-21T04:50:50.020Z,64.86
2023-05-21T04:53:52.111Z,62.64
2023-05-21T04:56:55.414Z,62.36
2023-05-21T04:59:58.064Z,62.88
2023-05-21T05:03:00.169Z,60.08
2023-05-21T05:06:04.493Z,60.19
2023-05-21T05:09:06.357Z,59.13
2023-05-21T05:12:09.653Z,59.22
2023-05-21T05:15:13.813Z,60.25
2023-05-21T05:18:16.487Z,59.32
2023-05-21T05:21:18.382Z,59.18
2023-05-21T05:24:21.020Z,60.44
2023-05-21T05:27:24.328Z,58.26
2023-05-21T05:30:26.943Z,58.08
2023-05-21T05:33:28.752Z,59.14
2023-05-21T05:36:31.674Z,57.86
2023-05-21T05:39:33.686Z,57.68
2023-05-21T05:42:37.363Z,58.47
2023-05-21T05:45:39.443Z,58.21
2023-05-21T05:48:41.900Z,58.11
2023-05-21T05:51:43.716Z,57.75
2023-05-21T05:54:46.114Z,57.89
2023-05-21T05:57:49.312Z,57.58
2023-05-21T06:00:52.501Z,56.40
2023-05-21T06:03:54.476Z,56.59
2023-05-21T06:06:57.661Z,55.98
2023-05-21T06:10:02.162Z,57.60
2023-05-21T06:13:06.309Z,57.36
2023-05-21T06:16:10.014Z,55.27
2023-05-21T06:19:12.848Z,56.90
2023-05-21T06:22:14.796Z,56.43
2023-05-21T06:25:16.759Z,54.05
2023-05-21T06:28:20.175Z,52.48
2023-05-21T06:31:22.592Z,51.25
2023-05-21T06:34:24.482Z,50.76
2023-05-21T06:37:26.737Z,51.60
2023-05-21T06:40:28.668Z,50.97
2023-05-21T06:43:32.147Z,50.62
2023-05-21T06:46:34.871Z,49.78
2023-05-21T06:49:37.925Z,49.57
2023-05-21T06:52:39.843Z,49.36
2023-05-21T06:55:44.403Z,51.34
2023-05-21T06:58:47.722Z,51.73
2023-05-21T07:01:49.755Z,49.46
2023-05-21T07:04:53.739Z,48.92
2023-05-21T07:07:55.734Z,49.84
2023-05-21T07:10:57.633Z,51.06
2023-05-21T07:14:02.148Z,48.00
2023-05-21T07:17:04.471Z,49.23
2023-05-21T07:20:08.470Z,47.31
2023-05-21T07:23:10.452Z,48.42
2023-05-21T07:26:12.380Z,48.10
2023-05-21T07:29:16.082Z,49.32
2023-05-21T07:32:17.894Z,48.48
2023-05-21T07:35:20.210Z,48.68
2023-05-21T07:38:22.609Z,48.90
2023-05-21T07:41:24.468Z,48.63
2023-05-21T07:44:28.112Z,46.95
2023-05-21T07:47:30.076Z,48.08
2023-05-21T07:50:32.662Z,48.10
2023-05-21T07:53:34.606Z,46.73
2023-05-21T07:56:36.639Z,48.61
2023-05-21T07:59:44.168Z,45.93
2023-05-21T08:02:46.446Z,47.80
2023-05-21T08:05:49.293Z,48.35
2023-05-21T08:08:51.181Z,49.28
2023-05-21T08:11:53.537Z,48.55
2023-05-21T08:14:57.520Z,48.01
2023-05-21T08:17:59.515Z,48.49
2023-05-21T08:21:01.734Z,46.32
2023-05-21T08:24:03.827Z,46.40
2023-05-21T08:27:05.952Z,46.69
2023-05-21T08:30:11.782Z,48.47
2023-05-21T08:33:14.196Z,44.76
2023-05-21T08:36:16.532Z,44.86
2023-05-21T08:39:18.458Z,44.61
2023-05-21T08:42:36.899Z,45.82
2023-05-21T08:45:44.949Z,44.86
2023-05-21T08:48:47.779Z,43.87
2023-05-21T08:51:50.383Z,45.85
2023-05-21T08:54:53.276Z,44.09
2023-05-21T08:57:55.502Z,46.18
2023-05-21T09:00:58.983Z,45.24
2023-05-21T09:04:12.657Z,45.14
2023-05-21T09:07:22.919Z,46.88
2023-05-21T09:10:30.076Z,45.97
2023-05-21T09:13:33.410Z,44.17
2023-05-21T09:16:36.818Z,45.24
2023-05-21T09:19:38.838Z,44.93
2023-05-21T09:22:42.674Z,43.94
2023-05-21T09:25:46.684Z,43.76
2023-05-21T09:28:51.477Z,42.67
2023-05-21T09:31:55.216Z,42.58
2023-05-21T09:35:06.867Z,44.27
2023-05-21T09:38:09.725Z,44.81
2023-05-21T09:41:11.572Z,42.80
2023-05-21T09:44:14.456Z,43.60
2023-05-21T09:47:21.586Z,45.02
2023-05-21T09:50:25.241Z,43.26
2023-05-21T09:53:29.571Z,45.02
2023-05-21T09:56:34.638Z,42.45
2023-05-21T09:59:39.498Z,42.58
2023-05-21T10:02:44.750Z,43.79
2023-05-21T10:05:47.388Z,43.72
2023-05-21T10:08:53.787Z,41.80
2023-05-21T10:11:56.893Z,43.16
2023-05-21T10:15:03.475Z,42.77
2023-05-21T10:18:07.278Z,42.02
2023-05-21T10:21:09.474Z,41.94
2023-05-21T10:24:11.614Z,41.07
2023-05-21T10:27:14.452Z,42.53
2023-05-21T10:30:18.643Z,40.21
2023-05-21T10:33:24.429Z,39.50
2023-05-21T10:36:31.832Z,38.90
2023-05-21T10:39:34.773Z,38.69
2023-05-21T10:43:08.951Z,40.97
2023-05-21T10:46:40.536Z,39.72
2023-05-21T10:49:59.463Z,39.12
2023-05-21T10:53:13.100Z,37.06
2023-05-21T10:56:22.975Z,37.08
2023-05-21T10:59:36.607Z,38.41
2023-05-21T11:02:39.171Z,37.26
2023-05-21T11:05:52.474Z,38.49
2023-05-21T11:08:55.891Z,38.90
2023-05-21T11:11:58.984Z,38.28
2023-05-21T11:15:00.852Z,40.28
2023-05-21T11:18:02.815Z,40.38
2023-05-21T11:21:07.088Z,38.93
2023-05-21T11:24:10.976Z,39.41
2023-05-21T11:27:13.040Z,38.98
2023-05-21T11:30:17.087Z,39.67
2023-05-21T11:33:19.710Z,37.83
2023-05-21T11:36:22.925Z,38.17
2023-05-21T11:39:25.921Z,38.89
2023-05-21T11:42:29.533Z,37.32
2023-05-21T11:45:33.424Z,41.21
2023-05-21T11:48:38.090Z,39.20
2023-05-21T11:51:41.709Z,38.75
2023-05-21T11:54:50.694Z,39.20
2023-05-21T11:57:54.456Z,40.38
2023-05-21T12:00:56.996Z,41.36
2023-05-21T12:03:58.867Z,38.74
2023-05-21T12:07:04.131Z,39.93
2023-05-21T12:10:07.578Z,40.14
2023-05-21T12:13:10.145Z,41.01
2023-05-21T12:16:13.068Z,41.03
2023-05-21T12:19:17.695Z,40.18
2023-05-21T12:22:21.464Z,39.48
2023-05-21T12:25:23.540Z,38.42
2023-05-21T12:28:25.683Z,38.06
2023-05-21T12:31:30.347Z,38.15
2023-05-21T12:34:43.267Z,39.49
2023-05-21T12:37:47.327Z,38.98
2023-05-21T12:40:49.169Z,37.26
2023-05-21T12:43:52.082Z,36.93
2023-05-21T12:46:53.943Z,34.91
2023-05-21T12:50:00.513Z,36.68
2023-05-21T12:53:03.940Z,35.33
2023-05-21T12:56:12.659Z,36.28
2023-05-21T12:59:15.663Z,35.70
2023-05-21T13:02:21.959Z,36.63
2023-05-21T13:05:23.848Z,37.83
2023-05-21T13:08:27.289Z,39.29
2023-05-21T13:11:29.311Z,36.40
2023-05-21T13:14:34.384Z,35.85
2023-05-21T13:17:36.861Z,35.59
2023-05-21T13:20:38.887Z,35.34
2023-05-21T13:23:42.332Z,35.96
2023-05-21T13:26:44.219Z,36.25
2023-05-21T13:29:46.084Z,36.96
2023-05-21T13:32:48.872Z,35.34
2023-05-21T13:35:51.933Z,36.43
2023-05-21T13:38:56.555Z,35.84
2023-05-21T13:41:59.307Z,37.35
2023-05-21T13:45:01.946Z,36.82
2023-05-21T13:48:04.155Z,37.79
2023-05-21T13:51:06.829Z,35.30
2023-05-21T13:54:10.264Z,34.09
2023-05-21T13:57:12.160Z,36.02
2023-05-21T14:00:15.824Z,33.33
2023-05-21T14:03:18.200Z,34.29
2023-05-21T14:06:21.254Z,33.87
2023-05-21T14:09:27.278Z,34.60
2023-05-21T14:12:29.816Z,35.75
2023-05-21T14:15:32.397Z,36.11
2023-05-21T14:18:34.244Z,35.77
2023-05-21T14:21:36.734Z,35.93
2023-05-21T14:24:40.033Z,34.92
2023-05-21T14:27:41.858Z,35.07
2023-05-21T14:30:44.742Z,36.73
2023-05-21T14:33:46.612Z,37.76
2023-05-21T14:36:48.474Z,35.99
2023-05-21T14:39:51.687Z,36.16
2023-05-21T14:42:53.552Z,36.57
2023-05-21T14:45:55.727Z,37.68
2023-05-21T14:49:00.726Z,38.12
2023-05-21T14:52:03.830Z,38.40
2023-05-21T14:55:08.005Z,37.41
2023-05-21T14:58:10.581Z,37.55
2023-05-21T15:01:12.493Z,37.86
2023-05-21T15:04:14.538Z,37.52
2023-05-21T15:07:16.525Z,37.83
2023-05-21T15:10:19.800Z,37.68
2023-05-21T15:13:22.629Z,36.93
2023-05-21T15:16:24.625Z,35.91
2023-05-21T15:19:26.636Z,37.28
2023-05-21T15:22:28.509Z,38.20
2023-05-21T15:25:31.909Z,38.29
2023-05-21T15:28:33.809Z,38.38
2023-05-21T15:31:35.667Z,38.53
2023-05-21T15:34:38.601Z,37.69
2023-05-21T15:37:40.611Z,37.60
2023-05-21T15:40:44.348Z,37.59
2023-05-21T15:43:46.286Z,39.28
2023-05-21T15:46:51.479Z,40.22
2023-05-21T15:49:53.512Z,41.45
2023-05-21T15:52:55.377Z,38.57
2023-05-21T15:55:58.829Z,38.65
2023-05-21T15:59:01.554Z,39.87
2023-05-21T16:02:03.430Z,39.29
2023-05-21T16:05:05.884Z,39.50
2023-05-21T16:08:10.751Z,40.30
2023-05-21T16:11:14.646Z,39.41
2023-05-21T16:14:16.491Z,40.30
2023-05-21T16:17:19.803Z,40.98
2023-05-21T16:20:22.422Z,39.72
2023-05-21T16:23:24.425Z,39.08
2023-05-21T16:26:27.655Z,41.34
2023-05-21T16:29:30.434Z,42.37
2023-05-21T16:32:33.170Z,39.15
2023-05-21T16:35:35.345Z,40.91
2023-05-21T16:38:38.261Z,40.98
2023-05-21T16:41:43.433Z,42.66
2023-05-21T16:44:45.381Z,47.42
2023-05-21T16:47:48.096Z,46.57
2023-05-21T16:50:50.308Z,42.21
2023-05-21T16:53:52.267Z,46.02
2023-05-21T16:56:55.856Z,45.85
2023-05-21T16:59:57.885Z,49.96
2023-05-21T17:03:00.574Z,51.01
2023-05-21T17:06:02.475Z,48.95
2023-05-21T17:09:05.462Z,52.34
2023-05-21T17:12:08.905Z,51.18
2023-05-21T17:15:10.940Z,54.32
2023-05-21T17:18:13.419Z,54.44
2023-05-21T17:21:15.464Z,54.37
2023-05-21T17:24:17.533Z,54.86
2023-05-21T17:27:21.619Z,58.04
2023-05-21T17:30:23.505Z,57.94
2023-05-21T17:33:26.541Z,59.24
2023-05-21T17:36:28.524Z,59.12
2023-05-21T17:39:30.390Z,63.24
2023-05-21T17:42:34.610Z,62.84
2023-05-21T17:45:36.608Z,65.53
2023-05-21T17:48:38.635Z,64.51
2023-05-21T17:51:41.198Z,63.82
2023-05-21T17:54:43.075Z,63.07
2023-05-21T17:57:46.607Z,64.73
2023-05-21T18:00:48.496Z,65.78
2023-05-21T18:03:51.194Z,64.78
2023-05-21T18:06:53.199Z,63.34
2023-05-21T18:09:55.149Z,61.84
2023-05-21T18:12:58.386Z,57.22
2023-05-21T18:16:00.328Z,57.93
2023-05-21T18:19:05.966Z,60.11
2023-05-21T18:22:08.134Z,61.45
2023-05-21T18:25:10.946Z,64.70
2023-05-21T18:28:14.211Z,64.84
2023-05-21T18:31:17.344Z,62.25
2023-05-21T18:34:20.096Z,62.27
2023-05-21T18:37:22.011Z,66.84
2023-05-21T18:40:25.736Z,67.42
2023-05-21T18:43:31.640Z,67.46
2023-05-21T18:46:33.782Z,67.67
2023-05-21T18:49:36.367Z,66.37
2023-05-21T18:52:38.797Z,68.25
2023-05-21T18:55:41.125Z,66.08
2023-05-21T18:58:44.392Z,64.60
2023-05-21T19:01:46.378Z,66.41
2023-05-21T19:04:48.923Z,66.45
2023-05-21T19:07:51.048Z,67.01
2023-05-21T19:10:53.076Z,65.88
2023-05-21T19:14:00.855Z,66.36
2023-05-21T19:17:02.797Z,65.57
2023-05-21T19:20:05.883Z,65.54
2023-05-21T19:23:10.515Z,66.12
2023-05-21T19:26:21.584Z,67.53
2023-05-21T19:29:27.189Z,66.53
2023-05-21T19:32:31.422Z,65.42
2023-05-21T19:35:33.345Z,65.46
2023-05-21T19:38:36.203Z,68.52
2023-05-21T19:41:38.177Z,67.93
2023-05-21T19:44:42.403Z,68.24
2023-05-21T19:47:44.351Z,68.50
2023-05-21T19:50:46.968Z,67.42
2023-05-21T19:53:48.895Z,68.08
2023-05-21T19:56:51.637Z,65.82
2023-05-21T19:59:54.802Z,66.21
2023-05-21T20:02:56.909Z,69.24
2023-05-21T20:05:58.842Z,65.80
2023-05-21T20:09:00.954Z,66.29
2023-05-21T20:12:03.491Z,65.41
2023-05-21T20:15:07.954Z,67.29
2023-05-21T20:18:09.894Z,65.83
2023-05-21T20:21:11.844Z,65.21
2023-05-21T20:24:16.087Z,64.82
2023-05-21T20:27:19.639Z,64.19
2023-05-21T20:30:23.150Z,64.82
2023-05-21T20:33:25.599Z,63.72
2023-05-21T20:36:30.504Z,64.71
2023-05-21T20:39:32.574Z,66.05
2023-05-21T20:42:35.296Z,66.22
2023-05-21T20:45:39.532Z,67.36
2023-05-21T20:48:41.883Z,68.00
2023-05-21T20:51:44.880Z,67.89
2023-05-21T20:54:46.798Z,67.44
2023-05-21T20:57:48.786Z,67.44
2023-05-21T21:00:52.034Z,67.72
2023-05-21T21:03:54.042Z,69.23
2023-05-21T21:06:56.676Z,71.19
2023-05-21T21:09:59.775Z,68.21
2023-05-21T21:13:01.644Z,67.62
2023-05-21T21:16:06.183Z,66.91
2023-05-21T21:19:08.078Z,67.07
2023-05-21T21:22:10.919Z,65.21
2023-05-21T21:25:14.006Z,66.46
2023-05-21T21:28:16.017Z,66.38
2023-05-21T21:31:20.175Z,66.24
2023-05-21T21:34:23.612Z,67.52
2023-05-21T21:37:25.753Z,68.20
2023-05-21T21:40:27.768Z,67.33
2023-05-21T21:43:30.706Z,67.13
2023-05-21T21:46:34.105Z,66.93
2023-05-21T21:49:38.375Z,65.85
2023-05-21T21:52:40.781Z,65.65
2023-05-21T21:55:42.665Z,65.58
2023-05-21T21:58:44.592Z,65.18
2023-05-21T22:01:47.977Z,63.13
2023-05-21T22:04:50.809Z,63.62
2023-05-21T22:07:52.851Z,62.15
2023-05-21T22:10:54.786Z,62.04
2023-05-21T22:13:57.655Z,60.96
2023-05-21T22:17:01.096Z,61.17
2023-05-21T22:20:04.798Z,62.26
2023-05-21T22:23:06.687Z,63.21
2023-05-21T22:26:09.574Z,62.65
2023-05-21T22:29:11.612Z,62.70
2023-05-21T22:32:14.961Z,63.39
2023-05-21T22:35:17.569Z,65.02
2023-05-21T22:38:19.436Z,63.82
2023-05-21T22:41:22.912Z,64.62
2023-05-21T22:44:24.838Z,64.99
2023-05-21T22:47:28.935Z,66.92
2023-05-21T22:50:32.967Z,65.60
2023-05-21T22:53:35.640Z,65.18
2023-05-21T22:56:38.453Z,65.92
2023-05-21T22:59:40.296Z,67.32
2023-05-21T23:02:43.826Z,67.04
2023-05-21T23:05:46.080Z,68.44
2023-05-21T23:08:48.058Z,67.69
2023-05-21T23:11:50.632Z,68.40
2023-05-21T23:14:52.480Z,66.50
2023-05-21T23:17:55.916Z,65.16
2023-05-21T23:20:57.876Z,68.83
2023-05-21T23:23:59.780Z,68.04
2023-05-21T23:27:03.128Z,65.61
2023-05-21T23:30:05.898Z,65.32
2023-05-21T23:33:09.962Z,66.05
2023-05-21T23:36:11.966Z,68.60
2023-05-21T23:39:13.810Z,66.04
2023-05-21T23:42:16.036Z,68.06
2023-05-21T23:45:18.252Z,69.01
2023-05-21T23:48:21.880Z,69.51
2023-05-21T23:51:23.803Z,65.67
2023-05-21T23:54:25.847Z,69.02
2023-05-21T23:57:28.344Z,70.27
